createdAt,value
2018-04-30T00:01:28.617Z,95.90
2018-04-30T00:03:55.257Z,95.90
2018-04-30T00:06:21.918Z,95.80
2018-04-30T00:08:48.691Z,95.80
2018-04-30T00:11:15.379Z,95.80
2018-04-30T00:13:42.101Z,95.70
2018-04-30T00:16:08.758Z,95.70
2018-04-30T00:18:35.479Z,95.60
2018-04-30T00:21:02.219Z,95.60
2018-04-30T00:23:28.865Z,95.50
2018-04-30T00:25:55.667Z,95.50
2018-04-30T00:28:23.154Z,95.40
2018-04-30T00:30:49.812Z,95.50
2018-04-30T00:33:16.485Z,95.40
2018-04-30T00:35:43.303Z,95.30
2018-04-30T00:38:09.966Z,95.30
2018-04-30T00:40:36.605Z,95.30
2018-04-30T00:43:03.273Z,95.30
2018-04-30T00:45:29.913Z,95.20
2018-04-30T00:47:57.452Z,95.10
2018-04-30T00:50:24.832Z,95.00
2018-04-30T00:52:51.515Z,95.00
2018-04-30T00:55:18.187Z,95.00
2018-04-30T00:57:44.891Z,94.90
2018-04-30T01:00:14.648Z,94.90
2018-04-30T01:02:41.350Z,95.00
2018-04-30T01:05:07.979Z,95.30
2018-04-30T01:07:34.637Z,95.50
2018-04-30T01:10:02.043Z,96.00
2018-04-30T01:12:28.740Z,96.10
2018-04-30T01:14:56.133Z,96.20
2018-04-30T01:17:22.942Z,96.20
2018-04-30T01:19:49.643Z,96.70
2018-04-30T01:22:16.627Z,96.90
2018-04-30T01:24:43.995Z,97.40
2018-04-30T01:27:11.375Z,97.40
2018-04-30T01:29:38.036Z,97.50
2018-04-30T01:32:04.701Z,97.50
2018-04-30T01:34:32.134Z,97.60
2018-04-30T01:36:58.741Z,97.70
2018-04-30T01:39:25.420Z,97.70
2018-04-30T01:41:52.212Z,97.90
2018-04-30T01:44:18.942Z,97.90
2018-04-30T01:46:45.592Z,98.20
2018-04-30T01:49:12.413Z,98.30
2018-04-30T01:51:39.151Z,98.30
2018-04-30T01:54:06.586Z,98.30
2018-04-30T01:56:33.999Z,98.60
2018-04-30T01:59:00.692Z,98.30
2018-04-30T02:01:28.193Z,98.20
2018-04-30T02:03:54.846Z,98.40
2018-04-30T02:06:21.975Z,98.40
2018-04-30T02:08:48.626Z,98.30
2018-04-30T02:11:15.269Z,98.30
2018-04-30T02:13:41.940Z,98.40
2018-04-30T02:16:09.342Z,98.40
2018-04-30T02:18:36.051Z,98.40
2018-04-30T02:21:03.448Z,98.40
2018-04-30T02:23:30.343Z,98.50
2018-04-30T02:25:57.764Z,98.30
2018-04-30T02:28:24.570Z,98.30
2018-04-30T02:30:51.414Z,98.20
2018-04-30T02:33:18.120Z,98.00
2018-04-30T02:35:45.607Z,97.90
2018-04-30T02:38:12.351Z,98.00
2018-04-30T02:40:39.503Z,97.90
2018-04-30T02:43:06.154Z,98.10
2018-04-30T02:45:32.876Z,97.90
2018-04-30T02:47:59.827Z,97.80
2018-04-30T02:50:26.503Z,97.80
2018-04-30T02:52:53.200Z,97.80
2018-04-30T02:55:20.041Z,97.80
2018-04-30T02:57:47.259Z,97.80
2018-04-30T03:00:14.720Z,98.10
2018-04-30T03:02:42.172Z,97.80
2018-04-30T03:05:09.282Z,97.80
2018-04-30T03:07:35.959Z,97.80
2018-04-30T03:10:02.695Z,97.90
2018-04-30T03:12:29.475Z,97.90
2018-04-30T03:14:56.283Z,98.10
2018-04-30T03:17:23.772Z,98.10
2018-04-30T03:19:50.474Z,98.10
2018-04-30T03:22:17.945Z,98.20
2018-04-30T03:24:45.427Z,98.40
2018-04-30T03:27:12.162Z,98.40
2018-04-30T03:29:39.008Z,98.60
2018-04-30T03:32:05.690Z,98.50
2018-04-30T03:34:32.317Z,98.60
2018-04-30T03:36:59.003Z,98.80
2018-04-30T03:39:25.718Z,99.10
2018-04-30T03:41:52.471Z,99.30
2018-04-30T03:44:19.942Z,99.30
2018-04-30T03:46:46.698Z,99.30
2018-04-30T03:49:13.383Z,99.60
2018-04-30T03:51:40.510Z,99.90
2018-04-30T03:54:07.197Z,99.90
2018-04-30T03:56:34.589Z,99.90
2018-04-30T03:59:01.423Z,99.90
2018-04-30T04:01:40.225Z,99.90
2018-04-30T04:04:18.948Z,99.90
2018-04-30T04:06:51.849Z,99.90
2018-04-30T04:09:18.554Z,99.90
2018-04-30T04:11:45.215Z,99.90
2018-04-30T04:14:12.172Z,99.90
2018-04-30T04:16:38.979Z,99.90
2018-04-30T04:19:06.378Z,99.90
2018-04-30T04:21:33.238Z,99.90
2018-04-30T04:23:59.907Z,99.90
2018-04-30T04:26:27.323Z,99.90
2018-04-30T04:28:54.084Z,99.90
2018-04-30T04:31:20.744Z,99.90
2018-04-30T04:33:48.128Z,99.90
2018-04-30T04:36:15.392Z,99.90
2018-04-30T04:38:42.036Z,99.90
2018-04-30T04:41:08.718Z,99.90
2018-04-30T04:43:35.406Z,99.90
2018-04-30T04:46:02.249Z,99.90
2018-04-30T04:48:28.938Z,99.90
2018-04-30T04:50:55.607Z,99.90
2018-04-30T04:53:23.077Z,99.90
2018-04-30T04:55:49.700Z,99.90
2018-04-30T04:58:16.355Z,99.90
2018-04-30T05:00:43.048Z,99.90
2018-04-30T05:03:09.862Z,99.90
2018-04-30T05:05:36.580Z,99.90
2018-04-30T05:08:03.262Z,99.90
2018-04-30T05:10:29.966Z,99.90
2018-04-30T05:12:56.603Z,99.90
2018-04-30T05:15:23.299Z,99.90
2018-04-30T05:17:50.718Z,99.90
2018-04-30T05:20:17.528Z,99.90
2018-04-30T05:22:44.186Z,99.90
2018-04-30T05:25:10.823Z,99.90
2018-04-30T05:27:37.746Z,99.90
2018-04-30T05:30:04.429Z,99.90
2018-04-30T05:32:31.071Z,99.90
2018-04-30T05:34:57.803Z,99.90
2018-04-30T05:37:24.470Z,99.10
2018-04-30T05:39:51.961Z,98.40
2018-04-30T05:42:18.674Z,98.40
2018-04-30T05:44:45.355Z,97.90
2018-04-30T05:47:12.102Z,97.30
2018-04-30T05:49:38.896Z,97.20
2018-04-30T05:52:06.310Z,97.10
2018-04-30T05:54:33.088Z,97.10
2018-04-30T05:57:00.499Z,97.00
2018-04-30T05:59:27.212Z,97.00
2018-04-30T06:01:54.494Z,96.90
2018-04-30T06:04:21.176Z,96.70
2018-04-30T06:06:47.837Z,96.70
2018-04-30T06:09:15.452Z,96.50
2018-04-30T06:11:42.142Z,96.30
2018-04-30T06:14:08.805Z,96.20
2018-04-30T06:16:35.544Z,95.70
2018-04-30T06:19:02.207Z,95.20
2018-04-30T06:21:29.615Z,94.20
2018-04-30T06:23:56.243Z,94.10
2018-04-30T06:26:23.091Z,93.90
2018-04-30T06:28:49.708Z,94.10
2018-04-30T06:31:16.365Z,93.90
2018-04-30T06:33:43.076Z,93.80
2018-04-30T06:36:10.504Z,93.90
2018-04-30T06:38:37.825Z,94.20
2018-04-30T06:41:04.495Z,94.20
2018-04-30T06:43:31.797Z,94.70
2018-04-30T06:45:58.480Z,94.60
2018-04-30T06:48:25.183Z,94.90
2018-04-30T06:50:51.926Z,95.20
2018-04-30T06:53:18.624Z,95.40
2018-04-30T06:55:45.367Z,95.60
2018-04-30T06:58:12.073Z,95.70
2018-04-30T07:00:38.660Z,95.90
2018-04-30T07:03:05.283Z,96.00
2018-04-30T07:05:31.882Z,96.30
2018-04-30T07:07:59.235Z,96.50
2018-04-30T07:10:26.625Z,96.50
2018-04-30T07:12:53.267Z,96.50
2018-04-30T07:15:19.877Z,96.60
2018-04-30T07:17:47.274Z,96.50
2018-04-30T07:20:13.859Z,96.50
2018-04-30T07:22:41.168Z,96.60
2018-04-30T07:25:08.227Z,96.60
2018-04-30T07:27:35.133Z,96.60
2018-04-30T07:30:01.721Z,96.60
2018-04-30T07:32:28.339Z,96.70
2018-04-30T07:34:54.935Z,96.70
2018-04-30T07:37:22.203Z,96.70
2018-04-30T07:39:48.772Z,96.80
2018-04-30T07:42:15.407Z,96.80
2018-04-30T07:44:42.052Z,97.00
2018-04-30T07:47:08.800Z,97.00
2018-04-30T07:49:35.461Z,97.20
2018-04-30T07:52:02.837Z,96.90
2018-04-30T07:54:29.467Z,96.80
2018-04-30T07:56:56.088Z,96.80
2018-04-30T07:59:22.790Z,96.80
2018-04-30T08:01:49.452Z,96.70
2018-04-30T08:04:16.104Z,96.50
2018-04-30T08:06:43.523Z,96.50
2018-04-30T08:09:10.418Z,96.50
2018-04-30T08:11:37.207Z,96.40
2018-04-30T08:14:03.880Z,96.40
2018-04-30T08:16:31.255Z,96.40
2018-04-30T08:18:58.660Z,96.50
2018-04-30T08:21:25.233Z,96.50
2018-04-30T08:23:52.677Z,96.60
2018-04-30T08:26:19.239Z,96.60
2018-04-30T08:28:46.038Z,96.70
2018-04-30T08:31:12.684Z,96.90
2018-04-30T08:33:39.724Z,97.20
2018-04-30T08:36:06.341Z,97.50
2018-04-30T08:38:32.983Z,97.40
2018-04-30T08:40:59.680Z,97.40
2018-04-30T08:43:26.261Z,97.20
2018-04-30T08:45:52.958Z,97.30
2018-04-30T08:48:19.581Z,97.30
2018-04-30T08:50:46.193Z,97.20
2018-04-30T08:53:14.227Z,96.90
2018-04-30T08:55:41.628Z,96.70
2018-04-30T08:58:08.311Z,96.70
2018-04-30T09:00:35.138Z,96.70
2018-04-30T09:03:02.460Z,96.40
2018-04-30T09:05:29.771Z,96.40
2018-04-30T09:07:56.406Z,96.30
2018-04-30T09:10:23.988Z,96.30
2018-04-30T09:12:50.722Z,96.40
2018-04-30T09:15:17.337Z,96.20
2018-04-30T09:17:43.996Z,96.10
2018-04-30T09:20:10.657Z,95.90
2018-04-30T09:22:37.338Z,95.80
2018-04-30T09:25:03.954Z,95.40
2018-04-30T09:27:30.769Z,95.30
2018-04-30T09:29:57.407Z,95.30
2018-04-30T09:32:24.072Z,95.20
2018-04-30T09:34:51.439Z,94.90
2018-04-30T09:37:18.028Z,94.90
2018-04-30T09:39:44.861Z,94.80
2018-04-30T09:42:11.543Z,94.50
2018-04-30T09:44:38.866Z,94.00
2018-04-30T09:47:05.477Z,93.90
2018-04-30T09:49:32.535Z,93.90
2018-04-30T09:51:59.176Z,93.90
2018-04-30T09:54:26.425Z,93.80
2018-04-30T09:56:54.395Z,93.50
2018-04-30T09:59:21.337Z,93.50
2018-04-30T10:01:47.978Z,93.50
2018-04-30T10:04:14.612Z,93.50
2018-04-30T10:06:41.266Z,93.40
2018-04-30T10:09:07.898Z,93.40
2018-04-30T10:11:34.468Z,93.30
2018-04-30T10:14:01.846Z,94.20
2018-04-30T10:16:29.271Z,94.80
2018-04-30T10:18:56.146Z,94.50
2018-04-30T10:21:23.542Z,95.10
2018-04-30T10:23:50.241Z,95.20
2018-04-30T10:26:17.595Z,95.00
2018-04-30T10:28:44.275Z,95.00
2018-04-30T10:31:11.215Z,95.00
2018-04-30T10:33:37.859Z,94.90
2018-04-30T10:36:04.611Z,94.50
2018-04-30T10:38:31.990Z,94.10
2018-04-30T10:40:58.587Z,94.00
2018-04-30T10:43:25.283Z,93.90
2018-04-30T10:45:52.020Z,93.80
2018-04-30T10:48:18.677Z,93.70
2018-04-30T10:50:45.240Z,93.40
2018-04-30T10:53:11.907Z,93.30
2018-04-30T10:55:38.609Z,93.10
2018-04-30T10:58:05.269Z,92.90
2018-04-30T11:00:31.993Z,92.80
2018-04-30T11:02:58.705Z,92.40
2018-04-30T11:05:25.366Z,92.10
2018-04-30T11:07:52.123Z,91.90
2018-04-30T11:10:18.733Z,91.90
2018-04-30T11:12:45.380Z,91.90
2018-04-30T11:15:12.369Z,92.10
2018-04-30T11:17:39.729Z,92.50
2018-04-30T11:20:06.388Z,92.30
2018-04-30T11:22:33.019Z,92.70
2018-04-30T11:24:59.899Z,93.00
2018-04-30T11:27:26.525Z,93.30
2018-04-30T11:29:53.452Z,93.50
2018-04-30T11:32:20.082Z,93.50
2018-04-30T11:34:46.829Z,93.60
2018-04-30T11:37:13.527Z,93.40
2018-04-30T11:39:40.152Z,93.30
2018-04-30T11:42:07.490Z,93.00
2018-04-30T11:44:34.114Z,93.40
2018-04-30T11:47:00.751Z,92.80
2018-04-30T11:49:27.351Z,92.20
2018-04-30T11:51:53.943Z,92.30
2018-04-30T11:54:21.082Z,92.20
2018-04-30T11:56:48.441Z,91.90
2018-04-30T11:59:15.031Z,91.80
2018-04-30T12:01:41.643Z,91.90
2018-04-30T12:04:09.021Z,91.40
2018-04-30T12:06:35.703Z,91.30
2018-04-30T12:09:04.891Z,90.90
2018-04-30T12:11:31.645Z,90.80
2018-04-30T12:13:58.237Z,90.20
2018-04-30T12:16:24.878Z,89.30
2018-04-30T12:18:51.523Z,88.30
2018-04-30T12:21:18.263Z,87.90
2018-04-30T12:23:44.925Z,87.10
2018-04-30T12:26:12.294Z,86.00
2018-04-30T12:28:42.467Z,81.30
2018-04-30T12:31:09.904Z,77.50
2018-04-30T12:33:36.551Z,75.40
2018-04-30T12:36:04.127Z,78.20
2018-04-30T12:38:31.426Z,77.30
2018-04-30T12:40:58.036Z,76.30
2018-04-30T12:43:24.695Z,77.30
2018-04-30T12:45:52.043Z,76.60
2018-04-30T12:48:18.646Z,76.40
2018-04-30T12:50:45.416Z,76.20
2018-04-30T12:53:11.986Z,75.10
2018-04-30T12:55:39.413Z,74.50
2018-04-30T12:58:06.870Z,74.60
2018-04-30T13:00:33.495Z,74.50
2018-04-30T13:03:00.077Z,74.30
2018-04-30T13:05:26.766Z,73.50
2018-04-30T13:07:55.316Z,72.60
2018-04-30T13:10:22.746Z,71.80
2018-04-30T13:12:50.162Z,71.20
2018-04-30T13:15:16.824Z,71.60
2018-04-30T13:17:44.203Z,70.60
2018-04-30T13:20:11.624Z,70.80
2018-04-30T13:22:38.202Z,70.50
2018-04-30T13:25:05.572Z,70.00
2018-04-30T13:27:32.257Z,69.30
2018-04-30T13:29:58.907Z,70.80
2018-04-30T13:32:25.505Z,70.50
2018-04-30T13:34:52.249Z,70.90
2018-04-30T13:37:18.864Z,70.90
2018-04-30T13:39:46.358Z,70.70
2018-04-30T13:42:12.946Z,69.70
2018-04-30T13:44:40.282Z,68.20
2018-04-30T13:47:07.696Z,67.60
2018-04-30T13:49:34.314Z,66.90
2018-04-30T13:52:00.975Z,67.40
2018-04-30T13:54:27.621Z,67.00
2018-04-30T13:56:54.214Z,67.10
2018-04-30T13:59:20.839Z,67.30
2018-04-30T14:01:47.611Z,67.00
2018-04-30T14:04:14.273Z,67.50
2018-04-30T14:06:40.978Z,67.50
2018-04-30T14:09:07.653Z,67.60
2018-04-30T14:11:34.301Z,67.70
2018-04-30T14:14:00.915Z,67.70
2018-04-30T14:16:27.531Z,67.70
2018-04-30T14:18:54.155Z,67.60
2018-04-30T14:21:20.821Z,67.50
2018-04-30T14:23:47.477Z,66.60
2018-04-30T14:26:14.098Z,65.80
2018-04-30T14:28:40.750Z,65.40
2018-04-30T14:31:08.140Z,65.60
2018-04-30T14:33:35.630Z,65.40
2018-04-30T14:36:02.283Z,64.90
2018-04-30T14:38:29.104Z,65.20
2018-04-30T14:40:55.628Z,64.70
2018-04-30T14:43:22.211Z,64.50
2018-04-30T14:45:48.925Z,64.50
2018-04-30T14:48:15.592Z,64.40
2018-04-30T14:50:42.330Z,63.60
2018-04-30T14:53:08.926Z,63.60
2018-04-30T14:55:35.533Z,63.20
2018-04-30T14:58:02.860Z,63.80
2018-04-30T15:00:29.567Z,63.60
2018-04-30T15:02:56.159Z,63.60
2018-04-30T15:05:22.907Z,63.60
2018-04-30T15:07:50.259Z,63.30
2018-04-30T15:10:17.686Z,63.50
2018-04-30T15:12:44.339Z,63.20
2018-04-30T15:15:10.951Z,63.30
2018-04-30T15:17:37.558Z,62.90
2018-04-30T15:20:04.211Z,63.50
2018-04-30T15:22:30.939Z,63.60
2018-04-30T15:24:57.504Z,64.30
2018-04-30T15:27:24.249Z,64.30
2018-04-30T15:29:50.843Z,64.60
2018-04-30T15:32:17.539Z,63.70
2018-04-30T15:34:44.119Z,64.00
2018-04-30T15:37:10.719Z,63.60
2018-04-30T15:39:37.347Z,63.60
2018-04-30T15:42:04.042Z,62.80
2018-04-30T15:44:31.439Z,62.90
2018-04-30T15:46:58.065Z,62.60
2018-04-30T15:49:24.659Z,62.40
2018-04-30T15:51:51.752Z,62.30
2018-04-30T15:54:18.389Z,62.30
2018-04-30T15:56:45.025Z,62.60
2018-04-30T15:59:11.607Z,62.90
2018-04-30T16:01:38.982Z,61.70
2018-04-30T16:04:05.632Z,61.60
2018-04-30T16:06:32.252Z,61.80
2018-04-30T16:08:58.929Z,62.00
2018-04-30T16:11:25.606Z,61.90
2018-04-30T16:13:52.941Z,62.30
2018-04-30T16:16:19.558Z,62.30
2018-04-30T16:18:46.138Z,63.00
2018-04-30T16:21:13.517Z,64.00
2018-04-30T16:23:40.106Z,64.00
2018-04-30T16:26:06.827Z,64.20
2018-04-30T16:28:33.456Z,64.20
2018-04-30T16:31:00.231Z,64.30
2018-04-30T16:33:27.660Z,65.40
2018-04-30T16:35:54.369Z,64.60
2018-04-30T16:38:21.107Z,64.60
2018-04-30T16:40:47.745Z,64.90
2018-04-30T16:43:14.352Z,65.20
2018-04-30T16:45:41.736Z,65.50
2018-04-30T16:48:08.344Z,65.40
2018-04-30T16:50:35.690Z,65.90
2018-04-30T16:53:03.100Z,66.10
2018-04-30T16:55:29.703Z,66.00
2018-04-30T16:57:57.695Z,66.00
2018-04-30T17:00:24.253Z,65.80
2018-04-30T17:02:51.907Z,66.10
2018-04-30T17:05:18.748Z,66.20
2018-04-30T17:07:45.806Z,66.50
2018-04-30T17:10:12.549Z,66.90
2018-04-30T17:12:39.147Z,67.00
2018-04-30T17:15:06.230Z,67.10
2018-04-30T17:17:33.281Z,67.40
2018-04-30T17:20:00.308Z,67.60
2018-04-30T17:22:27.790Z,68.10
2018-04-30T17:24:54.560Z,68.00
2018-04-30T17:27:21.951Z,69.20
2018-04-30T17:29:49.363Z,69.20
2018-04-30T17:32:16.718Z,69.10
2018-04-30T17:34:44.062Z,69.10
2018-04-30T17:37:10.944Z,69.00
2018-04-30T17:39:37.591Z,69.20
2018-04-30T17:42:04.364Z,69.70
2018-04-30T17:44:30.986Z,70.10
2018-04-30T17:46:57.642Z,70.10
2018-04-30T17:49:24.302Z,69.10
2018-04-30T17:51:50.902Z,68.30
2018-04-30T17:54:18.296Z,67.60
2018-04-30T17:56:45.009Z,67.50
2018-04-30T17:59:11.621Z,68.50
2018-04-30T18:01:38.387Z,68.00
2018-04-30T18:04:05.131Z,67.80
2018-04-30T18:06:31.970Z,68.30
2018-04-30T18:08:58.645Z,68.60
2018-04-30T18:11:26.032Z,69.20
2018-04-30T18:13:52.641Z,69.10
2018-04-30T18:16:20.019Z,69.20
2018-04-30T18:18:46.825Z,69.20
2018-04-30T18:21:14.251Z,69.50
2018-04-30T18:23:40.847Z,69.40
2018-04-30T18:26:07.645Z,69.80
2018-04-30T18:28:34.231Z,69.60
2018-04-30T18:31:01.210Z,69.80
2018-04-30T18:33:27.822Z,70.00
2018-04-30T18:35:54.486Z,70.10
2018-04-30T18:38:21.117Z,71.30
2018-04-30T18:40:47.759Z,70.80
2018-04-30T18:43:14.407Z,70.70
2018-04-30T18:45:41.136Z,70.90
2018-04-30T18:48:07.768Z,70.80
2018-04-30T18:50:34.362Z,71.10
2018-04-30T18:53:01.014Z,71.50
2018-04-30T18:55:28.609Z,72.10
2018-04-30T18:57:55.227Z,72.10
2018-04-30T19:00:21.822Z,72.60
2018-04-30T19:02:49.170Z,73.60
2018-04-30T19:05:16.972Z,74.00
2018-04-30T19:07:43.607Z,74.00
2018-04-30T19:10:10.201Z,74.30
2018-04-30T19:12:38.074Z,75.20
2018-04-30T19:15:05.468Z,76.30
2018-04-30T19:17:32.102Z,76.10
2018-04-30T19:19:58.692Z,76.20
2018-04-30T19:22:25.311Z,76.60
2018-04-30T19:24:52.044Z,76.70
2018-04-30T19:27:18.667Z,77.00
2018-04-30T19:29:45.287Z,77.40
2018-04-30T19:32:12.269Z,77.80
2018-04-30T19:34:38.908Z,78.10
2018-04-30T19:37:07.062Z,79.00
2018-04-30T19:39:33.688Z,79.20
2018-04-30T19:42:00.332Z,78.90
2018-04-30T19:44:27.739Z,79.30
2018-04-30T19:46:54.392Z,79.20
2018-04-30T19:49:21.093Z,79.60
2018-04-30T19:51:48.226Z,80.00
2018-04-30T19:54:14.874Z,80.20
2018-04-30T19:56:43.545Z,80.40
2018-04-30T19:59:10.215Z,80.80
2018-04-30T20:01:36.936Z,80.90
2018-04-30T20:04:03.778Z,81.30
2018-04-30T20:06:30.488Z,81.30
2018-04-30T20:08:57.938Z,81.50
2018-04-30T20:11:24.613Z,81.30
2018-04-30T20:13:52.715Z,81.00
2018-04-30T20:16:20.244Z,80.90
2018-04-30T20:18:46.845Z,81.00
2018-04-30T20:21:13.843Z,80.70
2018-04-30T20:23:40.541Z,80.40
2018-04-30T20:26:07.290Z,80.20
2018-04-30T20:28:34.594Z,80.40
2018-04-30T20:31:01.986Z,80.10
2018-04-30T20:33:28.609Z,80.10
2018-04-30T20:35:55.203Z,80.20
2018-04-30T20:38:22.632Z,80.80
2018-04-30T20:40:49.288Z,80.20
2018-04-30T20:43:15.879Z,80.20
2018-04-30T20:45:43.325Z,80.40
2018-04-30T20:48:09.963Z,80.30
2018-04-30T20:50:36.565Z,80.20
2018-04-30T20:53:03.640Z,80.40
2018-04-30T20:55:30.246Z,80.40
2018-04-30T20:57:56.827Z,80.40
2018-04-30T21:00:23.458Z,80.40
2018-04-30T21:02:50.076Z,80.50
2018-04-30T21:05:17.431Z,81.00
2018-04-30T21:07:44.853Z,81.10
2018-04-30T21:10:11.534Z,81.30
2018-04-30T21:12:38.898Z,81.40
2018-04-30T21:15:05.722Z,81.40
2018-04-30T21:17:33.189Z,81.80
2018-04-30T21:19:59.745Z,81.80
2018-04-30T21:22:26.367Z,81.80
2018-04-30T21:24:53.055Z,82.40
2018-04-30T21:27:20.286Z,82.40
2018-04-30T21:29:47.695Z,82.70
2018-04-30T21:32:15.008Z,83.00
2018-04-30T21:34:41.705Z,83.10
2018-04-30T21:37:08.363Z,83.10
2018-04-30T21:39:35.772Z,83.50
2018-04-30T21:42:02.492Z,83.60
2018-04-30T21:44:29.332Z,83.30
2018-04-30T21:46:55.931Z,83.50
2018-04-30T21:49:22.568Z,83.40
2018-04-30T21:51:49.971Z,83.50
2018-04-30T21:54:17.030Z,83.70
2018-04-30T21:56:43.625Z,83.40
2018-04-30T21:59:10.219Z,83.30
2018-04-30T22:01:37.571Z,82.60
2018-04-30T22:04:04.879Z,82.50
2018-04-30T22:06:31.692Z,82.40
2018-04-30T22:08:58.294Z,82.40
2018-04-30T22:11:25.640Z,81.60
2018-04-30T22:13:52.340Z,81.40
2018-04-30T22:16:18.985Z,81.00
2018-04-30T22:18:46.657Z,79.90
2018-04-30T22:21:13.250Z,79.80
2018-04-30T22:23:39.918Z,79.70
2018-04-30T22:26:06.614Z,79.20
2018-04-30T22:28:34.131Z,78.40
2018-04-30T22:31:00.789Z,78.30
2018-04-30T22:33:27.472Z,76.90
2018-04-30T22:35:54.861Z,77.20
2018-04-30T22:38:21.567Z,77.00
2018-04-30T22:40:48.987Z,77.00
2018-04-30T22:43:15.649Z,76.70
2018-04-30T22:45:42.334Z,76.40
2018-04-30T22:48:09.020Z,76.00
2018-04-30T22:50:35.690Z,76.30
2018-04-30T22:53:02.280Z,75.80
2018-04-30T22:55:29.089Z,75.70
2018-04-30T22:57:55.666Z,75.70
2018-04-30T23:00:22.485Z,75.60
2018-04-30T23:02:49.071Z,75.40
2018-04-30T23:05:15.734Z,75.30
2018-04-30T23:07:42.442Z,75.10
2018-04-30T23:10:09.847Z,75.30
2018-04-30T23:12:36.550Z,75.30
2018-04-30T23:15:03.288Z,75.40
2018-04-30T23:17:30.973Z,75.50
2018-04-30T23:19:57.625Z,75.40
2018-04-30T23:22:30.162Z,75.50
2018-04-30T23:24:56.887Z,75.70
2018-04-30T23:27:23.669Z,75.60
2018-04-30T23:29:50.355Z,75.90
2018-04-30T23:32:17.043Z,75.70
2018-04-30T23:34:43.892Z,76.20
2018-04-30T23:37:10.719Z,75.30
2018-04-30T23:39:37.648Z,75.10
2018-04-30T23:42:05.064Z,74.40
2018-04-30T23:44:31.734Z,73.80
2018-04-30T23:46:58.423Z,75.30
2018-04-30T23:49:25.092Z,74.50
2018-04-30T23:51:51.767Z,74.50
2018-04-30T23:54:19.180Z,74.70
2018-04-30T23:56:46.044Z,74.60
2018-04-30T23:59:13.480Z,75.10
